sensor_id;sensor_type;location;lat;lon;timestamp;pressure;altitude;pressure_sealevel;temperature;humidity
47710;BME280;33473;51.640;5.892;2022-10-17T00:04:40;101500;;;19.2;60.0
47710;BME280;33473;51.640;5.892;2022-10-17T00:18:00;101500;;;19.2;60.0
47710;BME280;33473;51.640;5.892;2022-10-17T00:31:19;101500;;;19.1;60.0
47710;BME280;33473;51.640;5.892;2022-10-17T00:44:41;101500;;;19.1;60.0
47710;BME280;33473;51.640;5.892;2022-10-17T00:58:02;101500;;;19.1;60.0
47710;BME280;33473;51.640;5.892;2022-10-17T01:11:23;101500;;;19.1;60.0
47710;BME280;33473;51.640;5.892;2022-10-17T01:24:45;101500;;;19.2;61.0
47710;BME280;33473;51.640;5.892;2022-10-17T01:38:05;101500;;;19.3;61.0
47710;BME280;33473;51.640;5.892;2022-10-17T01:51:26;101400;;;19.5;61.0
47710;BME280;33473;51.640;5.892;2022-10-17T02:04:48;101400;;;19.6;61.0
47710;BME280;33473;51.640;5.892;2022-10-17T02:18:09;101400;;;19.6;61.0
47710;BME280;33473;51.640;5.892;2022-10-17T02:31:31;101400;;;19.7;61.0
47710;BME280;33473;51.640;5.892;2022-10-17T02:44:50;101400;;;19.7;61.0
47710;BME280;33473;51.640;5.892;2022-10-17T02:58:12;101400;;;19.8;61.0
47710;BME280;33473;51.640;5.892;2022-10-17T03:11:33;101400;;;19.8;61.0
47710;BME280;33473;51.640;5.892;2022-10-17T03:24:54;101400;;;19.9;61.0
47710;BME280;33473;51.640;5.892;2022-10-17T03:38:14;101400;;;19.9;61.0
47710;BME280;33473;51.640;5.892;2022-10-17T03:51:34;101400;;;20.0;61.0
47710;BME280;33473;51.640;5.892;2022-10-17T04:04:53;101400;;;20.1;61.0
47710;BME280;33473;51.640;5.892;2022-10-17T04:18:15;101400;;;20.2;62.0
47710;BME280;33473;51.640;5.892;2022-10-17T04:31:34;101400;;;20.3;62.0
47710;BME280;33473;51.640;5.892;2022-10-17T04:44:56;101500;;;20.4;62.0
47710;BME280;33473;51.640;5.892;2022-10-17T04:58:17;101500;;;20.5;62.0
47710;BME280;33473;51.640;5.892;2022-10-17T05:11:39;101500;;;20.5;61.0
47710;BME280;33473;51.640;5.892;2022-10-17T05:24:58;101500;;;20.5;61.0
47710;BME280;33473;51.640;5.892;2022-10-17T05:38:20;101500;;;20.5;61.0
47710;BME280;33473;51.640;5.892;2022-10-17T05:51:41;101500;;;20.6;62.0
47710;BME280;33473;51.640;5.892;2022-10-17T06:05:03;101500;;;20.7;62.0
47710;BME280;33473;51.640;5.892;2022-10-17T06:18:22;101500;;;20.8;62.0
47710;BME280;33473;51.640;5.892;2022-10-17T06:31:44;101500;;;20.8;62.0
47710;BME280;33473;51.640;5.892;2022-10-17T06:45:05;101500;;;21.0;62.0
47710;BME280;33473;51.640;5.892;2022-10-17T07:11:47;101600;;;21.2;62.0
47710;BME280;33473;51.640;5.892;2022-10-17T07:25:09;101600;;;21.5;62.0
47710;BME280;33473;51.640;5.892;2022-10-17T07:38:31;101600;;;21.6;62.0
47710;BME280;33473;51.640;5.892;2022-10-17T07:51:52;101600;;;21.7;62.0
47710;BME280;33473;51.640;5.892;2022-10-17T08:05:14;101700;;;21.8;62.0
47710;BME280;33473;51.640;5.892;2022-10-17T08:18:35;101700;;;21.9;62.0
47710;BME280;33473;51.640;5.892;2022-10-17T08:31:57;101700;;;22.1;62.0
47710;BME280;33473;51.640;5.892;2022-10-17T08:45:17;101700;;;22.1;62.0
47710;BME280;33473;51.640;5.892;2022-10-17T08:58:38;101800;;;22.3;62.0
47710;BME280;33473;51.640;5.892;2022-10-17T09:11:58;101800;;;22.4;62.0
47710;BME280;33473;51.640;5.892;2022-10-17T09:25:19;101800;;;22.6;61.0
47710;BME280;33473;51.640;5.892;2022-10-17T09:38:41;101800;;;22.7;61.0
47710;BME280;33473;51.640;5.892;2022-10-17T09:52:02;101800;;;22.6;61.0
47710;BME280;33473;51.640;5.892;2022-10-17T10:05:23;101800;;;22.6;61.0
47710;BME280;33473;51.640;5.892;2022-10-17T10:18:43;101800;;;22.6;61.0
47710;BME280;33473;51.640;5.892;2022-10-17T10:32:05;101800;;;22.6;62.0
47710;BME280;33473;51.640;5.892;2022-10-17T10:45:26;101800;;;22.6;62.0
47710;BME280;33473;51.640;5.892;2022-10-17T10:58:48;101800;;;22.6;62.0
47710;BME280;33473;51.640;5.892;2022-10-17T11:12:09;101900;;;22.7;62.0
47710;BME280;33473;51.640;5.892;2022-10-17T11:25:31;101900;;;22.9;62.0
47710;BME280;33473;51.640;5.892;2022-10-17T11:38:50;101900;;;23.0;62.0
47710;BME280;33473;51.640;5.892;2022-10-17T11:52:12;101900;;;23.0;62.0
47710;BME280;33473;51.640;5.892;2022-10-17T12:05:33;101900;;;23.0;62.0
47710;BME280;33473;51.640;5.892;2022-10-17T12:18:55;101900;;;23.1;62.0
47710;BME280;33473;51.640;5.892;2022-10-17T12:32:16;101900;;;23.1;62.0
47710;BME280;33473;51.640;5.892;2022-10-17T12:45:36;101900;;;23.1;62.0
47710;BME280;33473;51.640;5.892;2022-10-17T12:58:57;101900;;;23.3;62.0
47710;BME280;33473;51.640;5.892;2022-10-17T13:12:18;102000;;;23.4;62.0
47710;BME280;33473;51.640;5.892;2022-10-17T13:25:38;102000;;;23.4;62.0
47710;BME280;33473;51.640;5.892;2022-10-17T13:38:59;102000;;;23.4;61.0
47710;BME280;33473;51.640;5.892;2022-10-17T13:52:19;102000;;;23.3;61.0
47710;BME280;33473;51.640;5.892;2022-10-17T14:05:39;102000;;;23.4;61.0
47710;BME280;33473;51.640;5.892;2022-10-17T14:19:00;102000;;;23.3;61.0
47710;BME280;33473;51.640;5.892;2022-10-17T14:32:20;102100;;;23.3;61.0
47710;BME280;33473;51.640;5.892;2022-10-17T14:45:41;102100;;;23.1;61.0
47710;BME280;33473;51.640;5.892;2022-10-17T14:59:03;102100;;;23.1;61.0
47710;BME280;33473;51.640;5.892;2022-10-17T15:12:24;102100;;;23.1;61.0
47710;BME280;33473;51.640;5.892;2022-10-17T15:25:45;102100;;;23.0;61.0
47710;BME280;33473;51.640;5.892;2022-10-17T15:39:05;102100;;;23.0;61.0
47710;BME280;33473;51.640;5.892;2022-10-17T15:52:25;102100;;;22.9;61.0
47710;BME280;33473;51.640;5.892;2022-10-17T16:05:46;102200;;;22.9;61.0
47710;BME280;33473;51.640;5.892;2022-10-17T16:19:07;102200;;;22.8;61.0
47710;BME280;33473;51.640;5.892;2022-10-17T16:32:29;102200;;;22.6;60.0
47710;BME280;33473;51.640;5.892;2022-10-17T16:45:50;102200;;;22.4;61.0
47710;BME280;33473;51.640;5.892;2022-10-17T16:59:11;102200;;;22.3;61.0
47710;BME280;33473;51.640;5.892;2022-10-17T17:12:33;102200;;;22.2;61.0
47710;BME280;33473;51.640;5.892;2022-10-17T17:25:54;102200;;;22.1;61.0
47710;BME280;33473;51.640;5.892;2022-10-17T17:39:15;102200;;;22.0;61.0
47710;BME280;33473;51.640;5.892;2022-10-17T17:52:35;102200;;;21.9;61.0
47710;BME280;33473;51.640;5.892;2022-10-17T18:05:56;102300;;;21.8;61.0
47710;BME280;33473;51.640;5.892;2022-10-17T18:19:18;102300;;;21.7;61.0
47710;BME280;33473;51.640;5.892;2022-10-17T18:32:39;102300;;;21.7;61.0
47710;BME280;33473;51.640;5.892;2022-10-17T18:46:00;102300;;;21.6;61.0
47710;BME280;33473;51.640;5.892;2022-10-17T18:59:20;102300;;;21.5;61.0
47710;BME280;33473;51.640;5.892;2022-10-17T19:12:41;102300;;;21.5;61.0
47710;BME280;33473;51.640;5.892;2022-10-17T19:26:03;102300;;;21.5;62.0
47710;BME280;33473;51.640;5.892;2022-10-17T19:39:24;102300;;;21.5;62.0
47710;BME280;33473;51.640;5.892;2022-10-17T19:52:45;102300;;;21.6;62.0
47710;BME280;33473;51.640;5.892;2022-10-17T20:06:05;102300;;;21.6;62.0
47710;BME280;33473;51.640;5.892;2022-10-17T20:19:25;102300;;;21.5;62.0
47710;BME280;33473;51.640;5.892;2022-10-17T20:32:46;102300;;;21.5;62.0
47710;BME280;33473;51.640;5.892;2022-10-17T20:46:06;102300;;;21.5;61.0
47710;BME280;33473;51.640;5.892;2022-10-17T20:59:27;102400;;;21.4;61.0
47710;BME280;33473;51.640;5.892;2022-10-17T21:12:49;102400;;;21.4;61.0
47710;BME280;33473;51.640;5.892;2022-10-17T21:26:09;102400;;;21.3;61.0
47710;BME280;33473;51.640;5.892;2022-10-17T21:39:28;102400;;;21.2;61.0
47710;BME280;33473;51.640;5.892;2022-10-17T21:52:50;102400;;;21.1;60.0
47710;BME280;33473;51.640;5.892;2022-10-17T22:06:12;102400;;;20.9;60.0
47710;BME280;33473;51.640;5.892;2022-10-17T22:19:33;102400;;;20.8;60.0
